Latest Weather Observations for Cobar Airport

IDN60801

Issued at 2:35 am EDT Monday 24 November 2014 (issued every 30 minutes, with the page automatically refreshed every 10 minutes)

About weather observations | Map of weather stations | Latest weather observations for NSW | Other Formats
Station Details ID: 048237 Name: COBAR AIRPORT AWS Lat: -31.54 Lon: 145.80 Height: 218.0 m
Data from the previous 72 hours. | See also: Recent months for locations in New South Wales
Date/Time
EDT
Temp
°C
App
Temp
°C
Dew
Point
Rel
Hum
%
Delta-T
°C
Wind Press
QNH
hPa
Press
MSL
hPa
Rain
since 9 am
mm
Dir
 
Spd
km/h
Gust
km/h
Spd
kts
Gust
kts
24/02:30am 30.6 29.8 11.1 30 11.4 SE 6 9 3 5 1011.1 1010.1 0.4
24/02:00am 31.1 29.3 11.0 29 11.7 SSE 11 15 6 8 1011.1 1010.1 0.4
24/01:30am 31.6 28.4 11.4 29 11.9 SSE 19 28 10 15 1011.1 1010.1 0.4
24/01:00am 32.1 28.3 11.3 28 12.2 SSE 22 32 12 17 1011.1 1010.1 0.4
24/12:30am 32.5 27.2 11.1 27 12.6 SSE 30 41 16 22 1010.9 1009.9 0.4
24/12:00am 33.0 27.6 10.9 26 13.0 S 30 39 16 21 1010.9 1009.9 0.4
 
Date/Time
EDT
Temp
°C
App
Temp
°C
Dew
Point
Rel
Hum
%
Delta-T
°C
Wind Press
QNH
hPa
Press
MSL
hPa
Rain
since 9 am
mm
Dir
 
Spd
km/h
Gust
km/h
Spd
kts
Gust
kts
23/11:30pm 33.1 29.3 11.0 26 13.0 S 22 32 12 17 1011.1 1010.1 0.4
23/11:00pm 33.2 30.9 10.5 25 13.3 S 13 17 7 9 1011.3 1010.3 0.4
23/10:30pm 33.6 30.9 10.2 24 13.6 SSW 15 19 8 10 1011.6 1010.6 0.4
23/10:00pm 33.8 32.3 10.4 24 13.7 SSE 9 13 5 7 1011.8 1010.8 0.4
23/09:30pm 34.5 31.1 10.4 23 14.1 SSE 19 24 10 13 1011.5 1010.5 0.4
23/09:00pm 33.9 30.8 11.7 26 13.2 ESE 19 46 10 25 1011.6 1010.6 0.4
23/08:47pm 34.0 28.3 11.8 26 13.3 NNE 33 54 18 29 1012.7 1011.8 0.4
23/08:45pm 35.1 28.0 10.9 23 14.3 NNE 39 54 21 29 1012.3 1011.3 0.4
23/08:30pm 33.7 32.1 10.3 24 13.6 NNW 9 17 5 9 1011.4 1010.4 0.4
23/08:00pm 35.0 32.4 9.4 21 14.8 S 13 17 7 9 1010.3 1009.3 0.4
23/07:30pm 36.0 32.7 9.5 20 15.4 S 17 22 9 12 1009.5 1008.6 0.4
23/07:00pm 36.5 32.5 9.2 19 15.9 SSW 20 28 11 15 1008.9 1008.0 0.4
23/06:30pm 37.1 33.8 9.6 19 16.1 SSW 17 26 9 14 1008.8 1007.9 0.4
23/06:00pm 34.7 29.9 13.0 27 13.2 SSW 30 46 16 25 1009.0 1008.1 0.4
23/05:53pm 34.2 29.5 12.0 26 13.3 SSW 28 65 15 35 1009.1 1008.2 0.4
23/05:30pm 37.8 34.5 9.4 18 16.6 SSW 17 26 9 14 1009.7 1008.8 0.0
23/05:00pm 37.7 32.7 10.9 20 16.0 SSW 28 39 15 21 1008.5 1007.6 0.0
23/04:30pm 37.6 31.6 10.8 20 16.0 SSW 33 50 18 27 1008.7 1007.8 0.0
23/04:07pm 39.8 32.5 7.3 14 18.6 SW 35 56 19 30 1008.0 1007.0 0.0
23/04:00pm 42.4 36.9 5.8 11 20.8 WNW 24 35 13 19 1007.8 1006.8 0.0
23/03:30pm 43.9 38.0 4.0 9 22.2 W 24 39 13 21 1007.7 1006.7 0.0
23/03:00pm 43.5 37.2 3.7 9 22.0 NNW 26 39 14 21 1008.2 1007.2 0.0
23/02:30pm 43.9 37.3 4.0 9 22.2 NW 28 37 15 20 1008.7 1007.8 0.0
23/02:25pm 44.1 36.2 4.2 9 22.3 NNW 35 61 19 33 1008.7 1007.8 0.0
23/02:00pm 42.7 36.7 3.1 9 21.6 W 24 43 13 23 1009.2 1008.3 0.0
23/01:30pm 42.1 34.8 2.7 9 21.3 NNW 30 48 16 26 1009.7 1008.8 0.0
23/01:00pm 42.7 35.1 3.1 9 21.6 NNW 32 50 17 27 1010.1 1009.1 0.0
23/12:59pm 42.5 34.9 3.0 9 21.5 NNW 32 50 17 27 1010.0 1009.0 0.0
23/12:30pm 42.1 34.8 2.7 9 21.3 N 30 41 16 22 1010.4 1009.4 0.0
23/12:00pm 41.6 34.4 0.7 8 21.4 N 28 46 15 25 1010.7 1009.7 0.0
23/11:52am 41.1 33.8 0.3 8 21.2 NNW 28 46 15 25 1010.7 1009.7 0.0
23/11:30am 40.3 32.6 -0.3 8 20.8 N 30 46 16 25 1010.9 1009.9 0.0
23/11:22am 40.5 33.4 1.5 9 20.6 N 28 46 15 25 1011.0 1010.0 0.0
23/11:00am 40.1 33.0 1.2 9 20.4 NNW 28 37 15 20 1011.2 1010.2 0.0
23/10:30am 39.4 32.4 2.2 10 19.7 N 28 37 15 20 1011.3 1010.3 0.0
23/10:00am 38.2 31.1 1.3 10 19.2 N 28 39 15 21 1011.2 1010.2 0.0
23/09:30am 37.2 31.7 1.8 11 18.4 N 20 28 11 15 1010.9 1009.9 0.0
23/09:00am 35.5 30.2 2.9 13 17.1 NNE 20 28 11 15 1010.9 1009.9 0.0
23/08:30am 33.6 28.7 4.3 16 15.5 NE 19 28 10 15 1010.7 1009.7 0.0
23/08:00am 32.0 27.6 4.7 18 14.5 NE 17 24 9 13 1010.4 1009.4 0.0
23/07:30am 30.0 26.2 6.0 22 12.8 NE 15 20 8 11 1010.4 1009.4 0.0
23/07:00am 28.2 25.3 6.3 25 11.7 NE 11 17 6 9 1010.2 1009.2 0.0
23/06:30am 27.1 24.5 6.0 26 11.1 ENE 9 15 5 8 1009.6 1008.7 0.0
23/06:00am 26.8 24.1 5.7 26 11.0 ENE 9 13 5 7 1009.3 1008.4 0.0
23/05:30am 27.7 25.1 5.9 25 11.5 ENE 9 11 5 6 1009.0 1008.1 0.0
23/05:00am 29.3 25.9 6.0 23 12.4 E 13 17 7 9 1008.8 1007.9 0.0
23/04:30am 29.4 26.4 6.1 23 12.4 ESE 11 13 6 7 1008.7 1007.8 0.0
23/04:00am 30.5 26.8 6.4 22 13.0 ESE 15 19 8 10 1008.9 1008.0 0.0
23/03:30am 31.3 27.9 5.7 20 13.7 E 13 22 7 12 1009.2 1008.3 0.0
23/03:00am 29.3 26.3 6.0 23 12.4 ESE 11 22 6 12 1008.9 1008.0 0.0
23/02:30am 30.1 27.8 7.3 24 12.5 NE 9 13 5 7 1008.6 1007.7 0.0
23/02:00am 30.0 27.0 7.8 25 12.2 NE 13 19 7 10 1008.8 1007.9 0.0
23/01:30am 30.3 27.6 7.5 24 12.5 ENE 11 15 6 8 1008.9 1008.0 0.0
23/01:00am 30.6 28.4 7.7 24 12.6 ENE 9 13 5 7 1009.2 1008.3 0.0
23/12:30am 31.4 28.8 7.8 23 13.1 E 11 15 6 8 1009.4 1008.5 0.0
23/12:00am 31.3 29.2 8.3 24 12.9 E 9 13 5 7 1009.6 1008.7 0.0
 
Date/Time
EDT
Temp
°C
App
Temp
°C
Dew
Point
Rel
Hum
%
Delta-T
°C
Wind Press
QNH
hPa
Press
MSL
hPa
Rain
since 9 am
mm
Dir
 
Spd
km/h
Gust
km/h
Spd
kts
Gust
kts
22/11:30pm 31.3 29.1 7.7 23 13.1 E 9 11 5 6 1009.7 1008.8 0.0
22/11:00pm 31.2 29.1 8.2 24 12.8 E 9 11 5 6 1009.9 1008.9 0.0
22/10:30pm 30.2 28.3 7.4 24 12.5 ENE 7 9 4 5 1010.1 1009.1 0.0
22/10:00pm 32.0 29.9 8.3 23 13.3 E 9 13 5 7 1010.1 1009.1 0.0
22/09:30pm 32.5 30.6 6.7 20 14.1 ENE 6 7 3 4 1010.0 1009.0 0.0
22/09:00pm 34.3 32.4 7.4 19 15.1 ESE 7 9 4 5 1009.7 1008.8 0.0
22/08:30pm 35.3 32.8 6.6 17 15.9 SE 9 13 5 7 1009.3 1008.4 0.0
22/08:00pm 36.5 34.0 6.6 16 16.7 S 9 11 5 6 1009.1 1008.2 0.0
22/07:30pm 37.6 35.1 6.6 15 17.4 SSW 9 13 5 7 1008.9 1008.0 0.0
22/07:00pm 38.4 35.8 6.2 14 18.0 SSE 9 13 5 7 1008.8 1007.9 0.0
22/06:30pm 38.7 36.7 6.4 14 18.1 SSE 6 9 3 5 1008.7 1007.8 0.0
22/06:00pm 38.8 34.4 6.5 14 18.2 SW 19 26 10 14 1008.7 1007.8 0.0
22/05:30pm 39.0 34.8 5.6 13 18.6 SW 17 24 9 13 1008.6 1007.7 0.0
22/05:00pm 39.3 36.6 5.8 13 18.7 SW 9 17 5 9 1008.5 1007.6 0.0
22/04:30pm 38.5 35.6 6.3 14 18.0 NW 11 20 6 11 1008.7 1007.8 0.0
22/04:00pm 38.0 34.6 5.9 14 17.9 W 13 17 7 9 1008.9 1008.0 0.0
22/03:30pm 39.0 35.2 5.6 13 18.6 SW 15 28 8 15 1009.4 1008.5 0.0
22/03:00pm 39.9 34.5 6.3 13 19.0 WSW 24 35 13 19 1010.0 1009.0 0.0
22/02:30pm 38.7 33.3 6.4 14 18.1 WSW 24 41 13 22 1010.6 1009.6 0.0
22/02:00pm 38.1 33.2 4.9 13 18.2 SSW 20 32 11 17 1010.9 1009.9 0.0
22/01:30pm 38.4 32.4 5.1 13 18.3 W 26 35 14 19 1011.1 1010.1 0.0
22/01:00pm 37.9 34.1 5.8 14 17.8 W 15 26 8 14 1011.5 1010.5 0.0
22/12:30pm 36.9 33.1 6.0 15 17.1 NW 15 26 8 14 1011.7 1010.7 0.0
22/12:00pm 35.9 33.1 5.2 15 16.7 ENE 9 13 5 7 1011.9 1010.9 0.0
22/11:30am 35.6 31.1 6.8 17 16.0 N 20 26 11 14 1011.6 1010.6 0.0
22/11:00am 35.4 33.1 7.5 18 15.7 NW 9 19 5 10 1012.1 1011.1 0.0
22/10:30am 33.7 29.2 6.9 19 14.8 NNW 20 26 11 14 1012.3 1011.3 0.0
22/10:00am 32.5 29.0 7.4 21 13.9 NNE 15 24 8 13 1012.5 1011.6 0.0
22/09:30am 31.9 28.3 8.2 23 13.3 ENE 17 24 9 13 1012.6 1011.7 0.0
22/09:00am 30.3 26.6 8.1 25 12.3 NE 17 22 9 12 1012.7 1011.8 0.0
22/08:30am 29.1 25.3 7.6 26 11.7 ENE 17 22 9 12 1012.6 1011.7 0.0
22/08:00am 27.7 24.7 7.5 28 10.9 ENE 13 22 7 12 1012.6 1011.7 0.0
22/07:30am 25.9 22.9 7.5 31 9.9 E 13 17 7 9 1012.3 1011.3 0.0
22/07:00am 23.4 20.5 6.7 34 8.7 ENE 11 15 6 8 1012.0 1011.0 0.0
22/06:30am 21.7 18.8 6.4 37 7.8 ENE 11 13 6 7 1011.6 1010.6 0.0
22/06:00am 22.5 19.4 7.1 37 8.0 ENE 13 17 7 9 1011.4 1010.4 0.0
22/05:30am 19.8 17.3 6.5 42 6.7 ENE 9 13 5 7 1011.1 1010.1 0.0
22/05:00am 18.7 17.2 5.2 41 6.6 NE 2 7 1 4 1010.9 1009.9 0.0
22/04:30am 19.4 17.7 5.8 41 6.8 NE 4 7 2 4 1010.9 1009.9 0.0
22/04:00am 19.6 17.3 5.6 40 7.0 NE 7 9 4 5 1010.9 1009.9 0.0
22/03:30am 19.6 18.5 4.9 38 7.2 CALM 0 6 0 3 1010.9 1009.9 0.0
22/03:00am 19.9 18.7 4.8 37 7.4 CALM 0 7 0 4 1010.9 1009.9 0.0
22/02:30am 23.0 20.5 6.7 35 8.5 SE 9 13 5 7 1010.9 1009.9 0.0
22/02:00am 21.4 19.2 5.3 35 8.1 SSE 6 7 3 4 1011.1 1010.1 0.0
22/01:30am 21.9 21.0 6.2 36 8.0 CALM 0 0 0 0 1011.3 1010.3 0.0
22/01:00am 21.1 19.4 4.2 33 8.3 SSW 2 6 1 3 1011.7 1010.7 0.0
22/12:30am 22.5 21.5 5.4 33 8.6 CALM 0 0 0 0 1012.1 1011.1 0.0
22/12:00am 22.8 21.6 4.8 31 9.0 CALM 0 0 0 0 1012.1 1011.1 0.0
 
Date/Time
EDT
Temp
°C
App
Temp
°C
Dew
Point
Rel
Hum
%
Delta-T
°C
Wind Press
QNH
hPa
Press
MSL
hPa
Rain
since 9 am
mm
Dir
 
Spd
km/h
Gust
km/h
Spd
kts
Gust
kts
21/11:30pm 23.8 22.8 5.7 31 9.3 CALM 0 0 0 0 1012.2 1011.2 0.0
21/11:00pm 24.7 23.8 6.0 30 9.7 CALM 0 0 0 0 1012.0 1011.0 0.0
21/10:30pm 25.6 24.6 5.8 28 10.3 CALM 0 0 0 0 1011.9 1010.9 0.0
21/10:00pm 26.9 24.9 6.3 27 10.9 S 6 7 3 4 1011.6 1010.6 0.0
21/09:30pm 28.0 25.5 6.7 26 11.4 SSW 9 11 5 6 1011.4 1010.4 0.0
21/09:00pm 29.3 26.8 6.7 24 12.2 SW 9 11 5 6 1011.0 1010.0 0.0
21/08:30pm 31.0 28.3 7.5 23 12.9 SW 11 13 6 7 1010.8 1009.8 0.0
21/08:00pm 31.9 28.6 6.2 20 13.9 WSW 13 19 7 10 1010.5 1009.5 0.0
21/07:30pm 33.2 28.8 4.9 17 15.1 WSW 17 24 9 13 1010.1 1009.1 0.0
21/07:00pm 33.7 28.8 5.3 17 15.3 W 20 28 11 15 1009.6 1008.7 0.0
21/06:30pm 34.5 30.5 6.7 18 15.4 WSW 17 22 9 12 1009.3 1008.4 0.0
21/06:00pm 34.5 29.4 5.9 17 15.6 WSW 22 30 12 16 1009.1 1008.2 0.0
21/05:30pm 34.9 29.8 6.2 17 15.8 W 22 32 12 17 1008.9 1008.0 0.0
21/05:00pm 34.6 29.1 7.6 19 15.2 SW 26 39 14 21 1009.2 1008.3 0.0
21/04:30pm 35.0 30.3 7.9 19 15.3 WSW 22 35 12 19 1009.2 1008.3 0.0
21/04:00pm 34.6 31.8 8.4 20 14.9 WNW 13 33 7 18 1009.3 1008.4 0.0
21/03:30pm 35.0 30.7 7.9 19 15.3 WSW 20 39 11 21 1009.7 1008.8 0.0
21/03:00pm 34.4 27.7 7.5 19 15.1 WSW 32 39 17 21 1010.2 1009.2 0.0
21/02:30pm 34.0 28.4 8.6 21 14.4 WSW 28 39 15 21 1010.4 1009.4 0.0
21/02:00pm 33.6 28.6 9.6 23 13.8 W 26 39 14 21 1010.7 1009.7 0.0
21/01:30pm 33.4 28.9 10.1 24 13.5 SW 24 37 13 20 1011.1 1010.1 0.0
21/01:00pm 33.0 28.8 9.7 24 13.4 W 22 37 12 20 1011.2 1010.2 0.0
21/12:30pm 32.3 27.4 9.8 25 12.9 W 26 32 14 17 1011.3 1010.3 0.0
21/12:00pm 31.1 28.7 9.9 27 12.1 WSW 13 32 7 17 1011.5 1010.5 0.0
21/11:30am 31.6 28.1 10.3 27 12.3 WSW 19 26 10 14 1011.7 1010.7 0.0
21/11:00am 30.0 26.3 10.0 29 11.4 SSW 20 35 11 19 1011.7 1010.7 0.0
21/10:30am 29.1 26.4 10.3 31 10.7 SSW 15 22 8 12 1012.0 1011.0 0.0
21/10:00am 29.2 26.2 10.8 32 10.6 SSW 17 22 9 12 1011.9 1010.9 0.0
21/09:30am 28.0 25.4 10.7 34 9.9 SW 15 24 8 13 1011.8 1010.8 0.0
21/09:00am 27.6 25.4 10.8 35 9.6 SSW 13 17 7 9 1011.8 1010.8 0.0
21/08:30am 26.4 22.8 10.5 37 9.0 SW 20 26 11 14 1011.6 1010.6 0.0
21/08:00am 25.9 22.3 10.5 38 8.7 SSW 20 26 11 14 1011.2 1010.2 0.0
21/07:30am 23.9 21.6 10.6 43 7.4 SW 13 17 7 9 1010.9 1009.9 0.0
21/07:00am 21.3 19.6 9.9 48 6.2 WSW 9 13 5 7 1010.9 1009.9 0.0
21/06:30am 18.9 18.2 7.0 46 6.1 CALM 0 0 0 0 1010.2 1009.2 0.0
21/06:00am 19.4 19.0 8.4 49 5.8 CALM 0 0 0 0 1009.6 1008.7 0.0
21/05:30am 20.1 19.6 7.8 45 6.4 CALM 0 0 0 0 1009.2 1008.3 0.0
21/05:00am 20.6 19.1 8.6 46 6.4 WSW 6 7 3 4 1009.0 1008.1 0.0
21/04:30am 21.3 21.1 8.9 45 6.6 CALM 0 6 0 3 1008.9 1008.0 0.0
21/04:00am 22.1 20.2 8.9 43 7.1 SW 9 13 5 7 1009.0 1008.1 0.0
21/03:30am 22.5 20.1 8.6 41 7.4 WSW 11 13 6 7 1009.0 1008.1 0.0
21/03:00am 23.7 21.7 8.5 38 8.2 SW 9 13 5 7 1008.7 1007.8 0.0

Other Formats:

Comma delimited format used in spreadsheet applications
http://www.bom.gov.au/fwo/IDN60801/IDN60801.94710.axf

JavaScript Object Notation format (JSON) in row-major order
http://www.bom.gov.au/fwo/IDN60801/IDN60801.94710.json